createdAt,value
2022-08-20T00:00:22.999Z,25.00
2022-08-20T00:02:58.471Z,25.00
2022-08-20T00:05:30.367Z,25.00
2022-08-20T00:07:58.870Z,25.10
2022-08-20T00:10:27.700Z,25.00
2022-08-20T00:12:55.683Z,25.10
2022-08-20T00:15:25.627Z,25.00
2022-08-20T00:17:52.681Z,25.00
2022-08-20T00:20:22.608Z,25.10
2022-08-20T00:22:49.762Z,25.10
2022-08-20T00:25:17.434Z,25.10
2022-08-20T00:27:44.479Z,25.10
2022-08-20T00:30:13.193Z,25.00
2022-08-20T00:32:53.583Z,25.10
2022-08-20T00:35:24.062Z,25.10
2022-08-20T00:37:50.813Z,25.10
2022-08-20T00:40:23.421Z,25.00
2022-08-20T00:43:02.541Z,25.10
2022-08-20T00:45:33.669Z,25.10
2022-08-20T00:48:00.646Z,25.10
2022-08-20T00:50:34.116Z,25.10
2022-08-20T00:53:02.871Z,25.10
2022-08-20T00:55:31.784Z,25.10
2022-08-20T00:58:03.780Z,25.10
2022-08-20T01:00:39.311Z,25.00
2022-08-20T01:03:09.790Z,25.00
2022-08-20T01:05:38.547Z,25.00
2022-08-20T01:08:06.579Z,25.00
2022-08-20T01:10:41.221Z,25.00
2022-08-20T01:13:11.753Z,25.00
2022-08-20T01:15:43.443Z,25.00
2022-08-20T01:18:13.767Z,24.90
2022-08-20T01:20:46.010Z,24.70
2022-08-20T01:23:30.730Z,24.50
2022-08-20T01:26:13.219Z,24.40
2022-08-20T01:29:02.379Z,24.40
2022-08-20T01:31:36.065Z,24.40
2022-08-20T01:34:06.264Z,24.40
2022-08-20T01:36:51.694Z,24.40
2022-08-20T01:39:25.067Z,24.30
2022-08-20T01:41:51.735Z,24.40
2022-08-20T01:44:21.073Z,24.30
2022-08-20T01:46:50.327Z,24.40
2022-08-20T01:49:30.800Z,24.30
2022-08-20T01:52:00.708Z,24.30
2022-08-20T01:54:28.024Z,24.30
2022-08-20T01:57:02.663Z,24.30
2022-08-20T01:59:30.455Z,24.30
2022-08-20T02:01:58.627Z,24.30
2022-08-20T02:04:26.981Z,24.30
2022-08-20T02:06:57.880Z,24.30
2022-08-20T02:09:31.605Z,24.30
2022-08-20T02:11:58.947Z,24.30
2022-08-20T02:14:27.017Z,24.30
2022-08-20T02:16:55.135Z,24.20
2022-08-20T02:19:40.132Z,24.20
2022-08-20T02:22:16.692Z,24.20
2022-08-20T02:24:44.220Z,24.20
2022-08-20T02:27:11.151Z,24.10
2022-08-20T02:29:38.066Z,24.20
2022-08-20T02:32:24.574Z,24.20
2022-08-20T02:34:53.208Z,24.20
2022-08-20T02:37:19.956Z,24.10
2022-08-20T02:39:47.420Z,24.10
2022-08-20T02:42:14.422Z,24.10
2022-08-20T02:44:41.185Z,24.00
2022-08-20T02:47:08.239Z,24.00
2022-08-20T02:49:35.400Z,24.00
2022-08-20T02:52:02.264Z,24.00
2022-08-20T02:54:29.348Z,23.90
2022-08-20T02:56:56.379Z,23.90
2022-08-20T02:59:23.332Z,23.90
2022-08-20T03:01:59.711Z,23.90
2022-08-20T03:04:28.556Z,23.90
2022-08-20T03:06:55.375Z,23.90
2022-08-20T03:09:22.166Z,23.90
2022-08-20T03:11:49.243Z,23.90
2022-08-20T03:14:15.965Z,23.90
2022-08-20T03:16:43.191Z,23.90
2022-08-20T03:19:10.041Z,23.90
2022-08-20T03:21:37.275Z,23.90
2022-08-20T03:24:04.545Z,23.90
2022-08-20T03:26:31.393Z,23.90
2022-08-20T03:28:58.288Z,23.90
2022-08-20T03:31:25.097Z,23.80
2022-08-20T03:33:53.517Z,23.80
2022-08-20T03:36:28.702Z,23.80
2022-08-20T03:38:57.547Z,23.80
2022-08-20T03:41:24.558Z,23.80
2022-08-20T03:43:52.903Z,23.90
2022-08-20T03:46:22.041Z,23.90
2022-08-20T03:48:59.598Z,23.90
2022-08-20T03:51:29.980Z,23.90
2022-08-20T03:53:57.603Z,24.00
2022-08-20T03:56:24.618Z,24.00
2022-08-20T03:58:51.505Z,24.00
2022-08-20T04:01:45.308Z,24.00
2022-08-20T04:04:05.544Z,24.00
2022-08-20T04:06:39.344Z,24.00
2022-08-20T04:09:07.183Z,24.00
2022-08-20T04:11:37.519Z,24.00
2022-08-20T04:14:04.709Z,24.00
2022-08-20T04:16:33.015Z,24.00
2022-08-20T04:19:01.889Z,23.90
2022-08-20T04:21:32.869Z,23.90
2022-08-20T04:24:01.035Z,23.90
2022-08-20T04:26:27.954Z,24.00
2022-08-20T04:28:55.475Z,23.90
2022-08-20T04:31:32.834Z,24.00
2022-08-20T04:34:01.901Z,24.00
2022-08-20T04:36:28.791Z,24.00
2022-08-20T04:38:55.639Z,24.00
2022-08-20T04:41:24.318Z,24.00
2022-08-20T04:43:54.170Z,24.00
2022-08-20T04:46:23.524Z,24.00
2022-08-20T04:48:50.714Z,23.90
2022-08-20T04:51:18.412Z,23.90
2022-08-20T04:53:51.736Z,23.90
2022-08-20T04:56:23.445Z,23.90
2022-08-20T04:58:52.232Z,23.80
2022-08-20T05:01:19.691Z,23.90
2022-08-20T05:03:49.500Z,23.90
2022-08-20T05:06:18.005Z,23.80
2022-08-20T05:08:45.425Z,23.80
2022-08-20T05:11:32.657Z,23.70
2022-08-20T05:14:01.064Z,23.70
2022-08-20T05:16:27.842Z,23.60
2022-08-20T05:18:54.634Z,23.60
2022-08-20T05:21:21.628Z,23.60
2022-08-20T05:23:49.192Z,23.60
2022-08-20T05:26:16.961Z,23.50
2022-08-20T05:28:58.001Z,23.50
2022-08-20T05:31:31.344Z,23.50
2022-08-20T05:34:18.132Z,23.50
2022-08-20T05:36:48.283Z,23.50
2022-08-20T05:39:20.573Z,23.50
2022-08-20T05:41:49.801Z,23.50
2022-08-20T05:44:17.200Z,23.50
2022-08-20T05:46:46.339Z,23.50
2022-08-20T05:49:19.845Z,23.50
2022-08-20T05:51:47.636Z,23.50
2022-08-20T05:54:15.348Z,23.50
2022-08-20T05:56:42.259Z,23.50
2022-08-20T05:59:10.444Z,23.50
2022-08-20T06:01:38.956Z,23.50
2022-08-20T06:04:24.849Z,23.50
2022-08-20T06:06:53.615Z,23.50
2022-08-20T06:09:31.481Z,23.60
2022-08-20T06:12:01.302Z,23.60
2022-08-20T06:14:28.214Z,23.70
2022-08-20T06:16:57.648Z,23.70
2022-08-20T06:19:26.847Z,23.70
2022-08-20T06:21:54.625Z,23.80
2022-08-20T06:24:21.425Z,23.80
2022-08-20T06:26:48.222Z,23.80
2022-08-20T06:29:15.977Z,23.90
2022-08-20T06:31:42.791Z,24.00
2022-08-20T06:34:09.601Z,24.10
2022-08-20T06:36:36.484Z,24.10
2022-08-20T06:39:03.442Z,24.20
2022-08-20T06:41:35.928Z,24.20
2022-08-20T06:44:03.435Z,24.30
2022-08-20T06:46:30.280Z,24.30
2022-08-20T06:48:57.032Z,24.30
2022-08-20T06:51:23.756Z,24.40
2022-08-20T06:53:50.541Z,24.40
2022-08-20T06:56:17.321Z,24.40
2022-08-20T06:58:44.071Z,24.40
2022-08-20T07:01:13.716Z,24.50
2022-08-20T07:03:55.647Z,24.40
2022-08-20T07:06:25.647Z,24.40
2022-08-20T07:08:53.827Z,24.40
2022-08-20T07:11:26.672Z,24.40
2022-08-20T07:13:56.497Z,24.50
2022-08-20T07:16:23.680Z,24.60
2022-08-20T07:18:50.428Z,24.60
2022-08-20T07:21:17.445Z,24.70
2022-08-20T07:23:44.387Z,24.70
2022-08-20T07:26:12.824Z,24.70
2022-08-20T07:28:39.616Z,24.70
2022-08-20T07:31:24.856Z,24.70
2022-08-20T07:33:51.606Z,24.80
2022-08-20T07:36:20.304Z,24.80
2022-08-20T07:38:48.343Z,24.80
2022-08-20T07:41:15.231Z,24.90
2022-08-20T07:43:45.676Z,24.90
2022-08-20T07:46:18.021Z,24.90
2022-08-20T07:48:50.222Z,25.00
2022-08-20T07:51:19.851Z,25.00
2022-08-20T07:53:48.299Z,25.00
2022-08-20T07:56:21.604Z,25.00
2022-08-20T07:58:51.508Z,25.10
2022-08-20T08:01:20.837Z,25.10
2022-08-20T08:03:50.419Z,25.10
2022-08-20T08:06:29.027Z,25.10
2022-08-20T08:09:01.737Z,25.10
2022-08-20T08:11:29.708Z,25.10
2022-08-20T08:13:56.714Z,25.10
2022-08-20T08:16:23.507Z,25.10
2022-08-20T08:18:56.595Z,25.10
2022-08-20T08:21:23.855Z,25.20
2022-08-20T08:23:50.609Z,25.20
2022-08-20T08:26:19.007Z,25.30
2022-08-20T08:28:46.890Z,25.30
2022-08-20T08:31:14.804Z,25.40
2022-08-20T08:33:42.196Z,25.40
2022-08-20T08:36:11.796Z,25.30
2022-08-20T08:38:41.267Z,25.40
2022-08-20T08:41:31.927Z,25.50
2022-08-20T08:44:12.898Z,25.60
2022-08-20T08:46:42.899Z,25.60
2022-08-20T08:49:13.516Z,25.70
2022-08-20T08:51:50.130Z,25.80
2022-08-20T08:54:20.567Z,25.90
2022-08-20T08:56:50.434Z,25.90
2022-08-20T08:59:19.073Z,26.10
2022-08-20T09:01:57.108Z,26.10
2022-08-20T09:04:34.537Z,26.00
2022-08-20T09:07:04.476Z,26.00
2022-08-20T09:09:36.950Z,26.20
2022-08-20T09:12:08.679Z,26.20
2022-08-20T09:14:36.200Z,26.20
2022-08-20T09:17:03.707Z,26.20
2022-08-20T09:19:30.546Z,26.30
2022-08-20T09:21:57.731Z,26.30
2022-08-20T09:24:25.704Z,26.40
2022-08-20T09:26:52.664Z,26.30
2022-08-20T09:29:19.423Z,26.20
2022-08-20T09:31:46.433Z,26.40
2022-08-20T09:34:14.444Z,26.50
2022-08-20T09:36:41.208Z,26.60
2022-08-20T09:39:09.901Z,26.70
2022-08-20T09:41:36.701Z,26.70
2022-08-20T09:44:03.717Z,26.80
2022-08-20T09:46:30.528Z,27.00
2022-08-20T09:48:57.300Z,27.20
2022-08-20T09:51:25.196Z,27.30
2022-08-20T09:53:52.047Z,27.40
2022-08-20T09:56:18.944Z,27.50
2022-08-20T09:58:58.010Z,27.60
2022-08-20T10:01:26.778Z,27.80
2022-08-20T10:03:53.605Z,27.90
2022-08-20T10:06:20.995Z,28.00
2022-08-20T10:08:49.650Z,28.10
2022-08-20T10:11:17.919Z,28.30
2022-08-20T10:13:45.370Z,28.50
2022-08-20T10:16:13.193Z,28.60
2022-08-20T10:18:40.326Z,28.70
2022-08-20T10:21:13.410Z,28.80
2022-08-20T10:23:40.339Z,29.00
2022-08-20T10:26:11.788Z,29.20
2022-08-20T10:28:39.285Z,29.40
2022-08-20T10:31:07.391Z,29.50
2022-08-20T10:33:35.392Z,29.70
2022-08-20T10:36:14.001Z,29.70
2022-08-20T10:38:41.295Z,29.80
2022-08-20T10:41:08.151Z,29.80
2022-08-20T10:43:34.920Z,29.70
2022-08-20T10:46:02.278Z,29.70
2022-08-20T10:48:29.435Z,29.90
2022-08-20T10:50:56.170Z,30.10
2022-08-20T10:53:22.909Z,30.10
2022-08-20T10:55:49.939Z,29.70
2022-08-20T10:58:16.699Z,29.40
2022-08-20T11:00:43.543Z,29.30
2022-08-20T11:03:10.316Z,29.50
2022-08-20T11:05:37.326Z,29.70
2022-08-20T11:08:05.368Z,29.60
2022-08-20T11:10:34.504Z,29.40
2022-08-20T11:13:03.344Z,29.00
2022-08-20T11:15:36.773Z,28.80
2022-08-20T11:18:04.415Z,28.80
2022-08-20T11:20:31.910Z,28.60
2022-08-20T11:22:58.984Z,28.40
2022-08-20T11:25:26.583Z,28.20
2022-08-20T11:27:54.894Z,28.00
2022-08-20T11:30:25.871Z,27.80
2022-08-20T11:32:53.628Z,27.60
2022-08-20T11:35:47.949Z,27.70
2022-08-20T11:38:10.382Z,28.30
2022-08-20T11:40:37.310Z,29.30
2022-08-20T11:43:14.575Z,29.80
2022-08-20T11:45:49.583Z,30.20
2022-08-20T11:48:16.940Z,30.90
2022-08-20T11:50:43.925Z,31.80
2022-08-20T11:53:10.780Z,33.00
2022-08-20T11:55:38.717Z,34.40
2022-08-20T11:58:06.223Z,35.80
2022-08-20T12:00:34.374Z,36.70
2022-08-20T12:03:02.388Z,36.30
2022-08-20T12:05:30.138Z,36.90
2022-08-20T12:07:57.909Z,38.20
2022-08-20T12:10:26.663Z,37.30
2022-08-20T12:12:54.137Z,35.70
2022-08-20T12:15:21.000Z,35.40
2022-08-20T12:17:47.959Z,34.30
2022-08-20T12:20:15.610Z,33.10
2022-08-20T12:22:43.796Z,32.40
2022-08-20T12:25:12.041Z,31.60
2022-08-20T12:27:39.460Z,30.90
2022-08-20T12:30:12.905Z,30.50
2022-08-20T12:32:39.984Z,30.00
2022-08-20T12:35:08.540Z,30.70
2022-08-20T12:37:35.818Z,33.50
2022-08-20T12:40:06.377Z,34.30
2022-08-20T12:42:33.351Z,34.10
2022-08-20T12:45:00.592Z,33.40
2022-08-20T12:47:30.379Z,32.30
2022-08-20T12:50:03.111Z,31.50
2022-08-20T12:52:32.922Z,30.90
2022-08-20T12:55:01.166Z,30.50
2022-08-20T12:57:31.552Z,30.20
2022-08-20T13:00:03.680Z,29.90
2022-08-20T13:02:32.000Z,29.60
2022-08-20T13:05:03.950Z,29.30
2022-08-20T13:07:32.103Z,29.10
2022-08-20T13:09:59.938Z,29.00
2022-08-20T13:12:27.034Z,29.10
2022-08-20T13:14:53.859Z,29.10
2022-08-20T13:17:21.096Z,29.10
2022-08-20T13:20:08.975Z,29.20
2022-08-20T13:22:36.328Z,29.30
2022-08-20T13:25:03.788Z,29.20
2022-08-20T13:27:30.734Z,29.00
2022-08-20T13:29:59.040Z,28.70
2022-08-20T13:32:26.396Z,28.50
2022-08-20T13:34:53.280Z,28.20
2022-08-20T13:37:25.584Z,28.00
2022-08-20T13:39:53.617Z,27.90
2022-08-20T13:42:21.025Z,27.90
2022-08-20T13:44:48.951Z,27.90
2022-08-20T13:47:18.311Z,28.00
2022-08-20T13:49:46.122Z,28.00
2022-08-20T13:52:16.856Z,28.30
2022-08-20T13:54:44.001Z,29.20
2022-08-20T13:57:15.284Z,29.90
2022-08-20T13:59:44.799Z,30.00
2022-08-20T14:02:13.078Z,29.90
2022-08-20T14:04:40.270Z,29.60
2022-08-20T14:07:11.443Z,29.20
2022-08-20T14:09:40.131Z,29.00
2022-08-20T14:12:08.764Z,29.00
2022-08-20T14:14:35.704Z,29.50
2022-08-20T14:17:33.114Z,30.50
2022-08-20T14:20:02.618Z,31.30
2022-08-20T14:22:29.703Z,31.40
2022-08-20T14:24:56.983Z,31.40
2022-08-20T14:27:27.744Z,31.00
2022-08-20T14:29:55.964Z,30.40
2022-08-20T14:32:22.774Z,29.90
2022-08-20T14:34:49.579Z,29.60
2022-08-20T14:37:19.782Z,29.80
2022-08-20T14:39:49.426Z,30.20
2022-08-20T14:42:16.878Z,30.10
2022-08-20T14:44:43.687Z,29.70
2022-08-20T14:47:17.873Z,29.70
2022-08-20T14:49:46.340Z,29.80
2022-08-20T14:52:14.600Z,30.00
2022-08-20T14:54:42.174Z,30.10
2022-08-20T14:57:13.209Z,30.00
2022-08-20T14:59:40.946Z,29.70
2022-08-20T15:02:09.607Z,29.50
2022-08-20T15:04:37.009Z,29.30
2022-08-20T15:07:10.930Z,29.20
2022-08-20T15:09:39.998Z,29.20
2022-08-20T15:12:06.859Z,29.20
2022-08-20T15:14:33.677Z,29.10
2022-08-20T15:17:00.415Z,29.00
2022-08-20T15:19:27.201Z,28.90
2022-08-20T15:21:54.072Z,28.70
2022-08-20T15:24:21.134Z,28.50
2022-08-20T15:26:48.075Z,28.30
2022-08-20T15:29:22.949Z,28.20
2022-08-20T15:31:51.018Z,28.20
2022-08-20T15:34:18.432Z,28.10
2022-08-20T15:36:45.881Z,28.00
2022-08-20T15:39:12.645Z,28.00
2022-08-20T15:41:39.406Z,27.90
2022-08-20T15:44:07.106Z,27.80
2022-08-20T15:46:36.283Z,27.80
2022-08-20T15:49:12.211Z,27.80
2022-08-20T15:51:45.046Z,27.80
2022-08-20T15:54:24.967Z,27.80
2022-08-20T15:57:03.781Z,27.80
2022-08-20T15:59:49.207Z,27.80
2022-08-20T16:03:10.246Z,27.80
2022-08-20T16:05:49.760Z,27.70
2022-08-20T16:08:50.243Z,27.60
2022-08-20T16:11:29.160Z,27.40
2022-08-20T16:14:02.967Z,27.40
2022-08-20T16:16:37.102Z,27.20
2022-08-20T16:19:04.962Z,27.20
2022-08-20T16:21:36.779Z,27.20
2022-08-20T16:24:07.763Z,27.30
2022-08-20T16:26:57.908Z,27.40
2022-08-20T16:29:45.525Z,27.40
2022-08-20T16:32:43.431Z,27.40
2022-08-20T16:35:27.666Z,27.40
2022-08-20T16:38:06.936Z,27.40
2022-08-20T16:40:49.630Z,27.40
2022-08-20T16:43:23.442Z,27.30
2022-08-20T16:46:05.724Z,27.30
2022-08-20T16:48:41.889Z,27.30
2022-08-20T16:51:25.856Z,27.30
2022-08-20T16:53:52.579Z,27.30
2022-08-20T16:56:41.840Z,27.30
2022-08-20T16:59:12.596Z,27.10
2022-08-20T17:02:07.365Z,27.20
2022-08-20T17:04:59.173Z,27.20
2022-08-20T17:07:41.657Z,27.20
2022-08-20T17:10:27.245Z,27.20
2022-08-20T17:13:19.115Z,27.20
2022-08-20T17:15:58.245Z,27.10
2022-08-20T17:18:29.603Z,27.10
2022-08-20T17:21:04.260Z,27.10
2022-08-20T17:23:54.801Z,27.00
2022-08-20T17:26:35.736Z,27.00
2022-08-20T17:29:15.326Z,27.00
2022-08-20T17:31:46.553Z,26.90
2022-08-20T17:34:21.165Z,26.80
2022-08-20T17:36:57.713Z,26.80
2022-08-20T17:39:27.616Z,26.70
2022-08-20T17:42:15.448Z,26.80
2022-08-20T17:44:45.871Z,26.80
2022-08-20T17:47:26.495Z,26.70
2022-08-20T17:50:03.166Z,26.60
2022-08-20T17:52:52.388Z,26.60
2022-08-20T17:55:20.436Z,26.50
2022-08-20T17:57:51.915Z,26.50
2022-08-20T18:00:25.174Z,26.40
2022-08-20T18:02:57.984Z,26.40
2022-08-20T18:05:25.109Z,26.40
2022-08-20T18:08:19.228Z,26.40
2022-08-20T18:11:24.851Z,26.30
2022-08-20T18:14:18.352Z,26.30
2022-08-20T18:17:08.565Z,26.20
2022-08-20T18:19:55.231Z,26.10
2022-08-20T18:22:28.400Z,26.00
2022-08-20T18:25:24.111Z,25.90
2022-08-20T18:27:54.535Z,25.90
2022-08-20T18:30:24.168Z,25.80
2022-08-20T18:33:03.097Z,25.80
2022-08-20T18:35:37.533Z,25.80
2022-08-20T18:38:27.501Z,25.80
2022-08-20T18:41:25.281Z,25.70
2022-08-20T18:44:05.439Z,25.70
2022-08-20T18:46:32.606Z,25.60
2022-08-20T18:49:07.285Z,25.60
2022-08-20T18:51:48.999Z,25.60
2022-08-20T18:54:26.108Z,25.40
2022-08-20T18:57:17.652Z,25.40
2022-08-20T18:59:50.676Z,25.40
2022-08-20T19:02:29.336Z,25.30
2022-08-20T19:05:02.684Z,25.30
2022-08-20T19:07:43.298Z,25.20
2022-08-20T19:10:41.663Z,25.10
2022-08-20T19:13:46.219Z,25.10
2022-08-20T19:16:49.727Z,25.00
2022-08-20T19:19:22.559Z,24.90
2022-08-20T19:21:49.573Z,24.90
2022-08-20T19:24:25.522Z,24.90
2022-08-20T19:27:08.162Z,24.80
2022-08-20T19:29:42.752Z,24.80
2022-08-20T19:32:21.533Z,24.70
2022-08-20T19:34:56.962Z,24.70
2022-08-20T19:37:39.709Z,24.60
2022-08-20T19:40:29.864Z,24.60
2022-08-20T19:42:59.607Z,24.50
2022-08-20T19:45:43.767Z,24.50
2022-08-20T19:48:37.206Z,24.40
2022-08-20T19:51:29.654Z,24.40
2022-08-20T19:53:56.495Z,24.30
2022-08-20T19:56:26.038Z,24.30
2022-08-20T19:59:02.110Z,24.30
2022-08-20T20:01:29.426Z,24.20
2022-08-20T20:04:03.249Z,24.20
2022-08-20T20:06:34.874Z,24.20
2022-08-20T20:09:06.531Z,24.10
2022-08-20T20:11:40.868Z,24.10
2022-08-20T20:14:11.491Z,24.00
2022-08-20T20:16:40.149Z,24.00
2022-08-20T20:19:27.499Z,23.90
2022-08-20T20:22:22.363Z,23.90
2022-08-20T20:25:25.333Z,23.80
2022-08-20T20:27:55.738Z,23.70
2022-08-20T20:30:29.974Z,23.70
2022-08-20T20:32:58.341Z,23.60
2022-08-20T20:35:35.593Z,23.60
2022-08-20T20:38:11.040Z,23.50
2022-08-20T20:40:50.574Z,23.40
2022-08-20T20:43:43.387Z,23.30
2022-08-20T20:46:20.045Z,23.30
2022-08-20T20:48:50.169Z,23.30
2022-08-20T20:51:30.699Z,23.20
2022-08-20T20:54:01.788Z,23.20
2022-08-20T20:56:33.208Z,23.20
2022-08-20T20:59:05.879Z,23.10
2022-08-20T21:01:49.327Z,23.10
2022-08-20T21:04:19.580Z,23.10
2022-08-20T21:06:47.077Z,23.00
2022-08-20T21:09:14.597Z,23.00
2022-08-20T21:11:41.360Z,22.90
2022-08-20T21:14:08.266Z,22.90
2022-08-20T21:16:35.064Z,22.90
2022-08-20T21:19:05.751Z,22.90
2022-08-20T21:21:32.906Z,22.90
2022-08-20T21:23:59.815Z,22.80
2022-08-20T21:26:27.988Z,22.80
2022-08-20T21:28:55.406Z,22.80
2022-08-20T21:31:30.214Z,22.70
2022-08-20T21:33:56.970Z,22.70
2022-08-20T21:36:23.761Z,22.70
2022-08-20T21:38:51.312Z,22.70
2022-08-20T21:41:18.365Z,22.70
2022-08-20T21:43:57.798Z,22.60
2022-08-20T21:46:25.855Z,22.60
2022-08-20T21:48:52.595Z,22.60
2022-08-20T21:51:19.360Z,22.60
2022-08-20T21:53:46.146Z,22.50
2022-08-20T21:56:12.928Z,22.50
2022-08-20T21:58:40.061Z,22.50
2022-08-20T22:01:07.545Z,22.50
2022-08-20T22:03:36.907Z,22.50
2022-08-20T22:06:07.535Z,22.40
2022-08-20T22:08:34.498Z,22.40
2022-08-20T22:11:02.107Z,22.40
2022-08-20T22:13:32.674Z,22.40
2022-08-20T22:16:04.278Z,22.40
2022-08-20T22:18:31.241Z,22.30
2022-08-20T22:20:58.368Z,22.40
2022-08-20T22:23:25.678Z,22.30
2022-08-20T22:25:53.124Z,22.30
2022-08-20T22:28:20.388Z,22.20
2022-08-20T22:30:47.283Z,22.30
2022-08-20T22:33:22.200Z,22.20
2022-08-20T22:35:51.508Z,22.20
2022-08-20T22:38:18.515Z,22.10
2022-08-20T22:40:46.043Z,22.10
2022-08-20T22:43:13.479Z,22.10
2022-08-20T22:45:43.262Z,22.20
2022-08-20T22:48:13.876Z,22.10
2022-08-20T22:50:40.652Z,22.10
2022-08-20T22:53:07.995Z,22.20
2022-08-20T22:55:35.171Z,22.10
2022-08-20T22:58:02.923Z,22.10
2022-08-20T23:00:32.655Z,22.00
2022-08-20T23:03:01.025Z,22.10
2022-08-20T23:05:30.512Z,22.00
2022-08-20T23:07:59.859Z,22.00
2022-08-20T23:10:28.336Z,22.00
2022-08-20T23:12:55.297Z,21.90
2022-08-20T23:15:22.113Z,21.90
2022-08-20T23:17:49.485Z,21.90
2022-08-20T23:20:17.836Z,21.90
2022-08-20T23:22:45.172Z,21.90
2022-08-20T23:25:12.782Z,21.80
2022-08-20T23:27:46.759Z,21.80
2022-08-20T23:30:15.222Z,21.70
2022-08-20T23:32:42.332Z,21.70
2022-08-20T23:35:10.013Z,21.70
2022-08-20T23:37:43.824Z,21.70
2022-08-20T23:40:11.784Z,21.70
2022-08-20T23:42:38.735Z,21.60
2022-08-20T23:45:06.454Z,21.60
2022-08-20T23:47:34.082Z,21.60
2022-08-20T23:50:00.872Z,21.60
2022-08-20T23:52:27.636Z,21.60
2022-08-20T23:54:54.378Z,21.60
2022-08-20T23:57:21.254Z,21.60
2022-08-20T23:59:49.083Z,21.60
